sensor_id;sensor_type;location;lat;lon;timestamp;P1;durP1;ratioP1;P2;durP2;ratioP2
78732;SDS011;68056;52.530;5.454;2023-03-08T00:00:42;3.25;;;1.27;;
78732;SDS011;68056;52.530;5.454;2023-03-08T00:03:11;1.60;;;1.05;;
78732;SDS011;68056;52.530;5.454;2023-03-08T00:05:38;2.53;;;1.30;;
78732;SDS011;68056;52.530;5.454;2023-03-08T00:08:04;1.52;;;1.17;;
78732;SDS011;68056;52.530;5.454;2023-03-08T00:10:29;1.35;;;0.88;;
78732;SDS011;68056;52.530;5.454;2023-03-08T00:12:55;1.48;;;1.08;;
78732;SDS011;68056;52.530;5.454;2023-03-08T00:15:21;4.03;;;1.33;;
78732;SDS011;68056;52.530;5.454;2023-03-08T00:17:46;2.20;;;1.60;;
78732;SDS011;68056;52.530;5.454;2023-03-08T00:20:12;1.48;;;1.02;;
78732;SDS011;68056;52.530;5.454;2023-03-08T00:22:38;3.05;;;1.30;;
78732;SDS011;68056;52.530;5.454;2023-03-08T00:25:06;2.47;;;1.00;;
78732;SDS011;68056;52.530;5.454;2023-03-08T00:27:36;2.80;;;1.67;;
78732;SDS011;68056;52.530;5.454;2023-03-08T00:30:04;1.63;;;1.45;;
78732;SDS011;68056;52.530;5.454;2023-03-08T00:34:55;2.40;;;1.10;;
78732;SDS011;68056;52.530;5.454;2023-03-08T00:37:21;1.38;;;1.23;;
78732;SDS011;68056;52.530;5.454;2023-03-08T00:39:50;1.40;;;1.30;;
78732;SDS011;68056;52.530;5.454;2023-03-08T00:42:17;2.22;;;1.50;;
78732;SDS011;68056;52.530;5.454;2023-03-08T00:44:43;2.85;;;2.38;;
78732;SDS011;68056;52.530;5.454;2023-03-08T00:47:09;3.08;;;1.80;;
78732;SDS011;68056;52.530;5.454;2023-03-08T00:49:34;4.55;;;1.95;;
78732;SDS011;68056;52.530;5.454;2023-03-08T00:52:00;2.65;;;1.60;;
78732;SDS011;68056;52.530;5.454;2023-03-08T00:54:26;2.92;;;1.95;;
78732;SDS011;68056;52.530;5.454;2023-03-08T00:56:53;1.58;;;1.27;;
78732;SDS011;68056;52.530;5.454;2023-03-08T00:59:18;1.80;;;1.60;;
78732;SDS011;68056;52.530;5.454;2023-03-08T01:01:44;3.25;;;1.70;;
78732;SDS011;68056;52.530;5.454;2023-03-08T01:04:10;4.22;;;1.75;;
78732;SDS011;68056;52.530;5.454;2023-03-08T01:06:37;1.80;;;1.40;;
78732;SDS011;68056;52.530;5.454;2023-03-08T01:09:06;1.83;;;1.30;;
78732;SDS011;68056;52.530;5.454;2023-03-08T01:11:32;1.58;;;0.95;;
78732;SDS011;68056;52.530;5.454;2023-03-08T01:14:03;2.92;;;0.47;;
78732;SDS011;68056;52.530;5.454;2023-03-08T01:16:32;0.55;;;0.22;;
78732;SDS011;68056;52.530;5.454;2023-03-08T01:19:01;0.25;;;0.20;;
78732;SDS011;68056;52.530;5.454;2023-03-08T01:21:30;0.45;;;0.30;;
78732;SDS011;68056;52.530;5.454;2023-03-08T01:23:56;0.10;;;0.00;;
78732;SDS011;68056;52.530;5.454;2023-03-08T01:26:23;0.10;;;0.10;;
78732;SDS011;68056;52.530;5.454;2023-03-08T01:28:50;0.80;;;0.20;;
78732;SDS011;68056;52.530;5.454;2023-03-08T01:31:17;0.47;;;0.30;;
78732;SDS011;68056;52.530;5.454;2023-03-08T01:33:45;0.90;;;0.50;;
78732;SDS011;68056;52.530;5.454;2023-03-08T01:36:13;0.20;;;0.20;;
78732;SDS011;68056;52.530;5.454;2023-03-08T01:38:40;0.35;;;0.20;;
78732;SDS011;68056;52.530;5.454;2023-03-08T01:41:07;1.23;;;0.40;;
78732;SDS011;68056;52.530;5.454;2023-03-08T01:43:37;0.52;;;0.30;;
78732;SDS011;68056;52.530;5.454;2023-03-08T01:46:14;0.25;;;0.13;;
78732;SDS011;68056;52.530;5.454;2023-03-08T01:51:25;0.38;;;0.30;;
78732;SDS011;68056;52.530;5.454;2023-03-08T01:53:58;1.75;;;0.30;;
78732;SDS011;68056;52.530;5.454;2023-03-08T01:56:28;0.75;;;0.20;;
78732;SDS011;68056;52.530;5.454;2023-03-08T01:58:54;0.77;;;0.35;;
78732;SDS011;68056;52.530;5.454;2023-03-08T02:01:22;0.13;;;0.08;;
78732;SDS011;68056;52.530;5.454;2023-03-08T02:03:48;3.85;;;0.43;;
78732;SDS011;68056;52.530;5.454;2023-03-08T02:06:15;1.10;;;0.20;;
78732;SDS011;68056;52.530;5.454;2023-03-08T02:08:46;0.52;;;0.10;;
78732;SDS011;68056;52.530;5.454;2023-03-08T02:11:11;1.77;;;0.35;;
78732;SDS011;68056;52.530;5.454;2023-03-08T02:13:38;0.17;;;0.10;;
78732;SDS011;68056;52.530;5.454;2023-03-08T02:16:06;0.57;;;0.10;;
78732;SDS011;68056;52.530;5.454;2023-03-08T02:18:36;0.00;;;0.00;;
78732;SDS011;68056;52.530;5.454;2023-03-08T02:21:25;0.20;;;0.10;;
78732;SDS011;68056;52.530;5.454;2023-03-08T02:23:53;0.50;;;0.10;;
78732;SDS011;68056;52.530;5.454;2023-03-08T02:26:19;0.22;;;0.10;;
78732;SDS011;68056;52.530;5.454;2023-03-08T02:28:45;0.77;;;0.10;;
78732;SDS011;68056;52.530;5.454;2023-03-08T02:31:12;0.30;;;0.15;;
78732;SDS011;68056;52.530;5.454;2023-03-08T02:33:39;0.35;;;0.25;;
78732;SDS011;68056;52.530;5.454;2023-03-08T02:36:05;1.33;;;0.30;;
78732;SDS011;68056;52.530;5.454;2023-03-08T02:38:52;2.30;;;0.20;;
78732;SDS011;68056;52.530;5.454;2023-03-08T02:41:23;0.30;;;0.25;;
78732;SDS011;68056;52.530;5.454;2023-03-08T02:43:53;0.50;;;0.20;;
78732;SDS011;68056;52.530;5.454;2023-03-08T02:46:19;1.17;;;0.30;;
78732;SDS011;68056;52.530;5.454;2023-03-08T02:48:45;1.63;;;0.40;;
78732;SDS011;68056;52.530;5.454;2023-03-08T02:51:14;1.23;;;0.32;;
78732;SDS011;68056;52.530;5.454;2023-03-08T02:53:42;0.15;;;0.10;;
78732;SDS011;68056;52.530;5.454;2023-03-08T02:56:10;0.65;;;0.30;;
78732;SDS011;68056;52.530;5.454;2023-03-08T02:58:38;0.77;;;0.30;;
78732;SDS011;68056;52.530;5.454;2023-03-08T03:03:38;0.68;;;0.40;;
78732;SDS011;68056;52.530;5.454;2023-03-08T03:06:11;0.90;;;0.60;;
78732;SDS011;68056;52.530;5.454;2023-03-08T03:08:38;1.63;;;0.50;;
78732;SDS011;68056;52.530;5.454;2023-03-08T03:11:09;0.90;;;0.40;;
78732;SDS011;68056;52.530;5.454;2023-03-08T03:13:39;1.15;;;0.35;;
78732;SDS011;68056;52.530;5.454;2023-03-08T03:16:08;0.55;;;0.32;;
78732;SDS011;68056;52.530;5.454;2023-03-08T03:18:38;1.10;;;0.70;;
78732;SDS011;68056;52.530;5.454;2023-03-08T03:21:05;0.60;;;0.40;;
78732;SDS011;68056;52.530;5.454;2023-03-08T03:23:35;0.43;;;0.43;;
78732;SDS011;68056;52.530;5.454;2023-03-08T03:26:05;2.22;;;0.65;;
78732;SDS011;68056;52.530;5.454;2023-03-08T03:28:32;1.08;;;0.68;;
78732;SDS011;68056;52.530;5.454;2023-03-08T03:30:58;1.17;;;0.47;;
78732;SDS011;68056;52.530;5.454;2023-03-08T03:33:24;0.55;;;0.45;;
78732;SDS011;68056;52.530;5.454;2023-03-08T03:35:50;0.95;;;0.50;;
78732;SDS011;68056;52.530;5.454;2023-03-08T03:38:15;0.22;;;0.20;;
78732;SDS011;68056;52.530;5.454;2023-03-08T03:40:41;0.80;;;0.60;;
78732;SDS011;68056;52.530;5.454;2023-03-08T03:43:07;1.52;;;0.60;;
78732;SDS011;68056;52.530;5.454;2023-03-08T03:45:33;2.30;;;0.43;;
78732;SDS011;68056;52.530;5.454;2023-03-08T03:47:58;0.60;;;0.40;;
78732;SDS011;68056;52.530;5.454;2023-03-08T03:50:24;0.30;;;0.28;;
78732;SDS011;68056;52.530;5.454;2023-03-08T03:52:50;0.35;;;0.28;;
78732;SDS011;68056;52.530;5.454;2023-03-08T03:55:15;0.30;;;0.28;;
78732;SDS011;68056;52.530;5.454;2023-03-08T03:57:41;0.55;;;0.40;;
78732;SDS011;68056;52.530;5.454;2023-03-08T04:00:07;0.57;;;0.38;;
78732;SDS011;68056;52.530;5.454;2023-03-08T04:02:32;1.27;;;0.50;;
78732;SDS011;68056;52.530;5.454;2023-03-08T04:04:58;0.50;;;0.40;;
78732;SDS011;68056;52.530;5.454;2023-03-08T04:07:24;0.32;;;0.32;;
78732;SDS011;68056;52.530;5.454;2023-03-08T04:09:49;0.95;;;0.52;;
78732;SDS011;68056;52.530;5.454;2023-03-08T04:12:15;1.55;;;0.45;;
78732;SDS011;68056;52.530;5.454;2023-03-08T04:14:40;0.30;;;0.20;;
78732;SDS011;68056;52.530;5.454;2023-03-08T04:17:06;0.65;;;0.35;;
78732;SDS011;68056;52.530;5.454;2023-03-08T04:19:32;0.30;;;0.20;;
78732;SDS011;68056;52.530;5.454;2023-03-08T04:21:58;0.25;;;0.25;;
78732;SDS011;68056;52.530;5.454;2023-03-08T04:24:23;0.80;;;0.70;;
78732;SDS011;68056;52.530;5.454;2023-03-08T04:26:50;0.60;;;0.50;;
78732;SDS011;68056;52.530;5.454;2023-03-08T04:29:16;1.00;;;0.30;;
78732;SDS011;68056;52.530;5.454;2023-03-08T04:31:41;0.63;;;0.40;;
78732;SDS011;68056;52.530;5.454;2023-03-08T04:34:07;0.80;;;0.60;;
78732;SDS011;68056;52.530;5.454;2023-03-08T04:36:32;0.65;;;0.30;;
78732;SDS011;68056;52.530;5.454;2023-03-08T04:38:58;1.30;;;0.45;;
78732;SDS011;68056;52.530;5.454;2023-03-08T04:41:24;0.20;;;0.20;;
78732;SDS011;68056;52.530;5.454;2023-03-08T04:43:51;0.98;;;0.65;;
78732;SDS011;68056;52.530;5.454;2023-03-08T04:46:18;1.48;;;0.50;;
78732;SDS011;68056;52.530;5.454;2023-03-08T04:51:12;0.68;;;0.30;;
78732;SDS011;68056;52.530;5.454;2023-03-08T04:53:39;0.30;;;0.30;;
78732;SDS011;68056;52.530;5.454;2023-03-08T04:56:06;0.50;;;0.35;;
78732;SDS011;68056;52.530;5.454;2023-03-08T04:58:33;1.13;;;0.70;;
78732;SDS011;68056;52.530;5.454;2023-03-08T05:00:59;2.78;;;1.10;;
78732;SDS011;68056;52.530;5.454;2023-03-08T05:03:31;0.70;;;0.50;;
78732;SDS011;68056;52.530;5.454;2023-03-08T05:05:57;0.77;;;0.55;;
78732;SDS011;68056;52.530;5.454;2023-03-08T05:08:23;0.60;;;0.55;;
78732;SDS011;68056;52.530;5.454;2023-03-08T05:10:49;1.70;;;1.10;;
78732;SDS011;68056;52.530;5.454;2023-03-08T05:13:21;2.65;;;2.03;;
78732;SDS011;68056;52.530;5.454;2023-03-08T05:15:47;1.88;;;1.05;;
78732;SDS011;68056;52.530;5.454;2023-03-08T05:18:13;1.92;;;1.23;;
78732;SDS011;68056;52.530;5.454;2023-03-08T05:23:06;0.65;;;0.55;;
78732;SDS011;68056;52.530;5.454;2023-03-08T05:25:32;1.35;;;0.95;;
78732;SDS011;68056;52.530;5.454;2023-03-08T05:27:59;2.45;;;1.60;;
78732;SDS011;68056;52.530;5.454;2023-03-08T05:30:25;1.17;;;1.08;;
78732;SDS011;68056;52.530;5.454;2023-03-08T05:32:51;3.88;;;1.55;;
78732;SDS011;68056;52.530;5.454;2023-03-08T05:35:16;1.98;;;1.30;;
78732;SDS011;68056;52.530;5.454;2023-03-08T05:37:42;2.03;;;1.27;;
78732;SDS011;68056;52.530;5.454;2023-03-08T05:40:08;1.67;;;1.08;;
78732;SDS011;68056;52.530;5.454;2023-03-08T05:42:34;1.55;;;1.13;;
78732;SDS011;68056;52.530;5.454;2023-03-08T05:45:00;1.40;;;1.30;;
78732;SDS011;68056;52.530;5.454;2023-03-08T05:47:26;1.27;;;1.17;;
78732;SDS011;68056;52.530;5.454;2023-03-08T05:49:53;1.17;;;0.90;;
78732;SDS011;68056;52.530;5.454;2023-03-08T05:52:18;1.02;;;1.00;;
78732;SDS011;68056;52.530;5.454;2023-03-08T05:54:44;1.27;;;0.98;;
78732;SDS011;68056;52.530;5.454;2023-03-08T05:57:10;1.08;;;0.82;;
78732;SDS011;68056;52.530;5.454;2023-03-08T05:59:35;2.40;;;1.00;;
78732;SDS011;68056;52.530;5.454;2023-03-08T06:02:01;1.90;;;1.25;;
78732;SDS011;68056;52.530;5.454;2023-03-08T06:04:27;1.13;;;1.02;;
78732;SDS011;68056;52.530;5.454;2023-03-08T06:06:52;2.40;;;1.40;;
78732;SDS011;68056;52.530;5.454;2023-03-08T06:09:18;3.08;;;1.70;;
78732;SDS011;68056;52.530;5.454;2023-03-08T06:11:43;3.08;;;1.80;;
78732;SDS011;68056;52.530;5.454;2023-03-08T06:14:09;2.83;;;1.50;;
78732;SDS011;68056;52.530;5.454;2023-03-08T06:16:34;1.27;;;1.17;;
78732;SDS011;68056;52.530;5.454;2023-03-08T06:19:00;3.08;;;2.50;;
78732;SDS011;68056;52.530;5.454;2023-03-08T06:21:26;2.97;;;1.80;;
78732;SDS011;68056;52.530;5.454;2023-03-08T06:23:52;2.58;;;1.88;;
78732;SDS011;68056;52.530;5.454;2023-03-08T06:26:17;2.38;;;1.98;;
78732;SDS011;68056;52.530;5.454;2023-03-08T06:28:43;2.50;;;2.00;;
78732;SDS011;68056;52.530;5.454;2023-03-08T06:31:10;3.50;;;2.85;;
78732;SDS011;68056;52.530;5.454;2023-03-08T06:33:37;4.95;;;2.78;;
78732;SDS011;68056;52.530;5.454;2023-03-08T06:36:04;2.05;;;1.88;;
78732;SDS011;68056;52.530;5.454;2023-03-08T06:38:32;3.67;;;2.40;;
78732;SDS011;68056;52.530;5.454;2023-03-08T06:40:59;3.95;;;2.28;;
78732;SDS011;68056;52.530;5.454;2023-03-08T06:43:25;3.10;;;2.00;;
78732;SDS011;68056;52.530;5.454;2023-03-08T06:45:51;2.55;;;1.90;;
78732;SDS011;68056;52.530;5.454;2023-03-08T06:48:17;3.65;;;2.47;;
78732;SDS011;68056;52.530;5.454;2023-03-08T06:50:42;2.88;;;2.28;;
78732;SDS011;68056;52.530;5.454;2023-03-08T06:53:09;2.65;;;2.05;;
78732;SDS011;68056;52.530;5.454;2023-03-08T06:55:35;4.78;;;3.22;;
78732;SDS011;68056;52.530;5.454;2023-03-08T06:58:01;2.85;;;2.55;;
78732;SDS011;68056;52.530;5.454;2023-03-08T07:00:27;2.95;;;2.65;;
78732;SDS011;68056;52.530;5.454;2023-03-08T07:02:53;3.28;;;2.38;;
78732;SDS011;68056;52.530;5.454;2023-03-08T07:05:19;5.20;;;4.50;;
78732;SDS011;68056;52.530;5.454;2023-03-08T07:07:45;6.95;;;4.78;;
78732;SDS011;68056;52.530;5.454;2023-03-08T07:10:11;6.07;;;3.25;;
78732;SDS011;68056;52.530;5.454;2023-03-08T07:12:39;7.68;;;5.65;;
78732;SDS011;68056;52.530;5.454;2023-03-08T07:15:11;4.28;;;3.88;;
78732;SDS011;68056;52.530;5.454;2023-03-08T07:17:41;5.28;;;3.67;;
78732;SDS011;68056;52.530;5.454;2023-03-08T07:20:08;7.40;;;4.60;;
78732;SDS011;68056;52.530;5.454;2023-03-08T07:22:34;5.22;;;4.10;;
78732;SDS011;68056;52.530;5.454;2023-03-08T07:25:00;5.90;;;4.82;;
78732;SDS011;68056;52.530;5.454;2023-03-08T07:27:25;5.57;;;4.53;;
78732;SDS011;68056;52.530;5.454;2023-03-08T07:29:51;9.40;;;5.80;;
78732;SDS011;68056;52.530;5.454;2023-03-08T07:32:17;9.20;;;5.80;;
78732;SDS011;68056;52.530;5.454;2023-03-08T07:34:43;6.97;;;4.72;;
78732;SDS011;68056;52.530;5.454;2023-03-08T07:37:12;5.95;;;4.90;;
78732;SDS011;68056;52.530;5.454;2023-03-08T07:39:39;7.00;;;5.50;;
78732;SDS011;68056;52.530;5.454;2023-03-08T07:42:05;5.90;;;4.10;;
78732;SDS011;68056;52.530;5.454;2023-03-08T07:44:30;8.25;;;6.07;;
78732;SDS011;68056;52.530;5.454;2023-03-08T07:46:56;7.07;;;4.93;;
78732;SDS011;68056;52.530;5.454;2023-03-08T07:49:22;6.82;;;5.45;;
78732;SDS011;68056;52.530;5.454;2023-03-08T07:51:48;5.45;;;4.13;;
78732;SDS011;68056;52.530;5.454;2023-03-08T07:54:17;14.30;;;6.15;;
78732;SDS011;68056;52.530;5.454;2023-03-08T07:56:43;10.52;;;6.25;;
78732;SDS011;68056;52.530;5.454;2023-03-08T07:59:09;6.47;;;4.50;;
78732;SDS011;68056;52.530;5.454;2023-03-08T08:01:34;6.22;;;4.60;;
78732;SDS011;68056;52.530;5.454;2023-03-08T08:04:00;6.28;;;5.18;;
78732;SDS011;68056;52.530;5.454;2023-03-08T08:06:26;6.22;;;4.75;;
78732;SDS011;68056;52.530;5.454;2023-03-08T08:08:53;9.68;;;6.20;;
78732;SDS011;68056;52.530;5.454;2023-03-08T08:11:19;7.40;;;6.22;;
78732;SDS011;68056;52.530;5.454;2023-03-08T08:13:45;7.40;;;5.75;;
78732;SDS011;68056;52.530;5.454;2023-03-08T08:16:14;6.97;;;5.35;;
78732;SDS011;68056;52.530;5.454;2023-03-08T08:18:40;8.65;;;5.60;;
78732;SDS011;68056;52.530;5.454;2023-03-08T08:21:08;7.63;;;5.25;;
78732;SDS011;68056;52.530;5.454;2023-03-08T08:23:36;7.13;;;5.00;;
78732;SDS011;68056;52.530;5.454;2023-03-08T08:26:06;7.53;;;5.68;;
78732;SDS011;68056;52.530;5.454;2023-03-08T08:28:33;8.88;;;6.13;;
78732;SDS011;68056;52.530;5.454;2023-03-08T08:31:02;8.57;;;5.10;;
78732;SDS011;68056;52.530;5.454;2023-03-08T08:33:30;6.78;;;6.07;;
78732;SDS011;68056;52.530;5.454;2023-03-08T08:35:56;4.78;;;4.28;;
78732;SDS011;68056;52.530;5.454;2023-03-08T08:38:23;7.90;;;6.35;;
78732;SDS011;68056;52.530;5.454;2023-03-08T08:40:49;7.95;;;5.82;;
78732;SDS011;68056;52.530;5.454;2023-03-08T08:43:15;5.97;;;4.45;;
78732;SDS011;68056;52.530;5.454;2023-03-08T08:45:42;7.32;;;5.60;;
78732;SDS011;68056;52.530;5.454;2023-03-08T08:48:12;5.72;;;4.55;;
78732;SDS011;68056;52.530;5.454;2023-03-08T08:50:39;6.18;;;5.22;;
78732;SDS011;68056;52.530;5.454;2023-03-08T08:53:06;6.75;;;4.70;;
78732;SDS011;68056;52.530;5.454;2023-03-08T08:55:32;9.52;;;5.03;;
78732;SDS011;68056;52.530;5.454;2023-03-08T08:57:58;10.15;;;5.75;;
78732;SDS011;68056;52.530;5.454;2023-03-08T09:00:24;6.43;;;4.30;;
78732;SDS011;68056;52.530;5.454;2023-03-08T09:02:50;6.55;;;5.20;;
78732;SDS011;68056;52.530;5.454;2023-03-08T09:05:15;14.07;;;8.18;;
78732;SDS011;68056;52.530;5.454;2023-03-08T09:07:41;10.05;;;5.65;;
78732;SDS011;68056;52.530;5.454;2023-03-08T09:10:07;8.73;;;5.57;;
78732;SDS011;68056;52.530;5.454;2023-03-08T09:12:33;7.47;;;5.15;;
78732;SDS011;68056;52.530;5.454;2023-03-08T09:14:59;8.00;;;5.13;;
78732;SDS011;68056;52.530;5.454;2023-03-08T09:17:25;7.38;;;5.50;;
78732;SDS011;68056;52.530;5.454;2023-03-08T09:19:50;6.95;;;4.90;;
78732;SDS011;68056;52.530;5.454;2023-03-08T09:22:16;6.15;;;4.45;;
78732;SDS011;68056;52.530;5.454;2023-03-08T09:24:42;9.30;;;5.65;;
78732;SDS011;68056;52.530;5.454;2023-03-08T09:27:09;6.50;;;4.35;;
78732;SDS011;68056;52.530;5.454;2023-03-08T09:29:35;9.52;;;5.35;;
78732;SDS011;68056;52.530;5.454;2023-03-08T09:32:02;5.35;;;3.72;;
78732;SDS011;68056;52.530;5.454;2023-03-08T09:34:28;6.90;;;4.60;;
78732;SDS011;68056;52.530;5.454;2023-03-08T09:36:53;7.93;;;5.32;;
78732;SDS011;68056;52.530;5.454;2023-03-08T09:39:19;5.97;;;4.53;;
78732;SDS011;68056;52.530;5.454;2023-03-08T09:47:21;7.32;;;4.90;;
78732;SDS011;68056;52.530;5.454;2023-03-08T09:50:00;4.85;;;4.35;;
78732;SDS011;68056;52.530;5.454;2023-03-08T09:52:56;5.13;;;3.95;;
78732;SDS011;68056;52.530;5.454;2023-03-08T09:55:34;4.20;;;3.35;;
78732;SDS011;68056;52.530;5.454;2023-03-08T09:58:04;5.13;;;4.60;;
78732;SDS011;68056;52.530;5.454;2023-03-08T10:00:50;5.38;;;4.32;;
78732;SDS011;68056;52.530;5.454;2023-03-08T10:06:20;5.38;;;3.95;;
78732;SDS011;68056;52.530;5.454;2023-03-08T10:09:02;6.80;;;4.07;;
78732;SDS011;68056;52.530;5.454;2023-03-08T10:11:44;6.97;;;4.32;;
78732;SDS011;68056;52.530;5.454;2023-03-08T10:14:20;5.75;;;4.25;;
78732;SDS011;68056;52.530;5.454;2023-03-08T10:16:52;5.15;;;4.15;;
78732;SDS011;68056;52.530;5.454;2023-03-08T10:19:30;7.55;;;3.90;;
78732;SDS011;68056;52.530;5.454;2023-03-08T10:22:03;4.82;;;3.42;;
78732;SDS011;68056;52.530;5.454;2023-03-08T10:24:35;4.30;;;3.28;;
78732;SDS011;68056;52.530;5.454;2023-03-08T10:27:20;6.85;;;4.43;;
78732;SDS011;68056;52.530;5.454;2023-03-08T10:29:48;7.18;;;4.32;;
78732;SDS011;68056;52.530;5.454;2023-03-08T10:32:19;6.95;;;4.68;;
78732;SDS011;68056;52.530;5.454;2023-03-08T10:34:45;6.53;;;4.38;;
78732;SDS011;68056;52.530;5.454;2023-03-08T10:37:11;5.70;;;3.88;;
78732;SDS011;68056;52.530;5.454;2023-03-08T10:39:46;6.18;;;4.55;;
78732;SDS011;68056;52.530;5.454;2023-03-08T10:42:17;5.85;;;3.92;;
78732;SDS011;68056;52.530;5.454;2023-03-08T10:45:11;5.53;;;3.53;;
78732;SDS011;68056;52.530;5.454;2023-03-08T10:47:39;8.43;;;4.10;;
78732;SDS011;68056;52.530;5.454;2023-03-08T10:52:33;4.70;;;3.28;;
78732;SDS011;68056;52.530;5.454;2023-03-08T10:54:59;8.13;;;5.05;;
78732;SDS011;68056;52.530;5.454;2023-03-08T10:57:26;7.13;;;4.63;;
78732;SDS011;68056;52.530;5.454;2023-03-08T10:59:52;5.82;;;3.55;;
78732;SDS011;68056;52.530;5.454;2023-03-08T11:02:18;8.82;;;4.05;;
78732;SDS011;68056;52.530;5.454;2023-03-08T11:04:53;6.68;;;4.25;;
78732;SDS011;68056;52.530;5.454;2023-03-08T11:07:28;5.93;;;3.80;;
78732;SDS011;68056;52.530;5.454;2023-03-08T11:10:13;6.45;;;4.90;;
78732;SDS011;68056;52.530;5.454;2023-03-08T11:12:41;4.75;;;3.63;;
78732;SDS011;68056;52.530;5.454;2023-03-08T11:15:14;5.85;;;4.22;;
78732;SDS011;68056;52.530;5.454;2023-03-08T11:17:44;7.07;;;4.25;;
78732;SDS011;68056;52.530;5.454;2023-03-08T11:20:26;6.55;;;4.45;;
78732;SDS011;68056;52.530;5.454;2023-03-08T11:23:09;7.57;;;4.72;;
78732;SDS011;68056;52.530;5.454;2023-03-08T11:33:56;5.78;;;4.15;;
78732;SDS011;68056;52.530;5.454;2023-03-08T11:41:57;7.43;;;5.03;;
78732;SDS011;68056;52.530;5.454;2023-03-08T11:47:17;7.43;;;4.85;;
78732;SDS011;68056;52.530;5.454;2023-03-08T11:52:50;9.35;;;5.45;;
78732;SDS011;68056;52.530;5.454;2023-03-08T11:58:31;7.53;;;4.95;;
78732;SDS011;68056;52.530;5.454;2023-03-08T12:01:40;8.43;;;4.90;;
78732;SDS011;68056;52.530;5.454;2023-03-08T12:04:11;6.72;;;4.28;;
78732;SDS011;68056;52.530;5.454;2023-03-08T12:06:55;6.43;;;4.60;;
78732;SDS011;68056;52.530;5.454;2023-03-08T12:12:01;9.48;;;5.32;;
78732;SDS011;68056;52.530;5.454;2023-03-08T12:14:48;6.40;;;3.72;;
78732;SDS011;68056;52.530;5.454;2023-03-08T12:17:24;8.40;;;4.90;;
78732;SDS011;68056;52.530;5.454;2023-03-08T12:19:55;9.90;;;4.43;;
78732;SDS011;68056;52.530;5.454;2023-03-08T12:27:28;8.40;;;5.03;;
78732;SDS011;68056;52.530;5.454;2023-03-08T12:30:10;9.82;;;5.18;;
78732;SDS011;68056;52.530;5.454;2023-03-08T12:32:38;10.38;;;5.85;;
78732;SDS011;68056;52.530;5.454;2023-03-08T12:35:19;6.28;;;4.25;;
78732;SDS011;68056;52.530;5.454;2023-03-08T12:37:54;7.22;;;4.88;;
78732;SDS011;68056;52.530;5.454;2023-03-08T12:40:49;8.38;;;5.10;;
78732;SDS011;68056;52.530;5.454;2023-03-08T12:48:27;10.40;;;5.97;;
78732;SDS011;68056;52.530;5.454;2023-03-08T12:53:42;10.25;;;5.30;;
78732;SDS011;68056;52.530;5.454;2023-03-08T12:56:32;9.43;;;5.78;;
78732;SDS011;68056;52.530;5.454;2023-03-08T13:01:39;11.27;;;5.95;;
78732;SDS011;68056;52.530;5.454;2023-03-08T13:04:26;8.15;;;4.28;;
78732;SDS011;68056;52.530;5.454;2023-03-08T13:12:15;6.25;;;3.50;;
78732;SDS011;68056;52.530;5.454;2023-03-08T13:21:13;6.93;;;2.88;;
78732;SDS011;68056;52.530;5.454;2023-03-08T13:30:48;5.85;;;3.10;;
78732;SDS011;68056;52.530;5.454;2023-03-08T13:37:00;6.15;;;2.95;;
78732;SDS011;68056;52.530;5.454;2023-03-08T13:39:32;5.30;;;3.33;;
78732;SDS011;68056;52.530;5.454;2023-03-08T13:42:16;2.97;;;2.33;;
78732;SDS011;68056;52.530;5.454;2023-03-08T13:45:24;4.97;;;2.70;;
78732;SDS011;68056;52.530;5.454;2023-03-08T13:48:10;3.08;;;1.63;;
78732;SDS011;68056;52.530;5.454;2023-03-08T13:51:04;4.30;;;1.85;;
78732;SDS011;68056;52.530;5.454;2023-03-08T13:53:54;2.88;;;1.80;;
78732;SDS011;68056;52.530;5.454;2023-03-08T13:56:58;4.40;;;2.28;;
78732;SDS011;68056;52.530;5.454;2023-03-08T13:59:55;4.00;;;2.40;;
78732;SDS011;68056;52.530;5.454;2023-03-08T14:04:49;5.22;;;2.40;;
78732;SDS011;68056;52.530;5.454;2023-03-08T14:07:18;3.95;;;1.83;;
78732;SDS011;68056;52.530;5.454;2023-03-08T14:09:49;3.63;;;1.75;;
78732;SDS011;68056;52.530;5.454;2023-03-08T14:12:16;3.50;;;2.30;;
78732;SDS011;68056;52.530;5.454;2023-03-08T14:14:46;5.13;;;2.25;;
78732;SDS011;68056;52.530;5.454;2023-03-08T14:17:21;3.47;;;1.75;;
78732;SDS011;68056;52.530;5.454;2023-03-08T14:20:31;5.28;;;1.77;;
78732;SDS011;68056;52.530;5.454;2023-03-08T14:22:45;2.65;;;1.63;;
78732;SDS011;68056;52.530;5.454;2023-03-08T14:25:20;2.85;;;1.52;;
78732;SDS011;68056;52.530;5.454;2023-03-08T14:27:51;2.80;;;1.55;;
78732;SDS011;68056;52.530;5.454;2023-03-08T14:30:18;3.08;;;1.63;;
78732;SDS011;68056;52.530;5.454;2023-03-08T14:33:00;2.85;;;1.65;;
78732;SDS011;68056;52.530;5.454;2023-03-08T14:35:38;3.55;;;1.70;;
78732;SDS011;68056;52.530;5.454;2023-03-08T14:38:14;3.70;;;1.50;;
78732;SDS011;68056;52.530;5.454;2023-03-08T14:40:49;4.15;;;1.83;;
78732;SDS011;68056;52.530;5.454;2023-03-08T14:43:19;5.40;;;2.17;;
78732;SDS011;68056;52.530;5.454;2023-03-08T14:45:54;5.13;;;2.60;;
78732;SDS011;68056;52.530;5.454;2023-03-08T14:48:28;2.70;;;1.58;;
78732;SDS011;68056;52.530;5.454;2023-03-08T14:53:29;5.57;;;3.03;;
78732;SDS011;68056;52.530;5.454;2023-03-08T14:55:56;5.70;;;3.00;;
78732;SDS011;68056;52.530;5.454;2023-03-08T14:58:24;3.70;;;2.17;;
78732;SDS011;68056;52.530;5.454;2023-03-08T15:00:56;4.38;;;2.55;;
78732;SDS011;68056;52.530;5.454;2023-03-08T15:03:23;3.92;;;2.20;;
78732;SDS011;68056;52.530;5.454;2023-03-08T15:05:49;4.05;;;2.80;;
78732;SDS011;68056;52.530;5.454;2023-03-08T15:08:16;4.68;;;2.17;;
78732;SDS011;68056;52.530;5.454;2023-03-08T15:10:43;3.85;;;1.98;;
78732;SDS011;68056;52.530;5.454;2023-03-08T15:13:13;5.32;;;2.25;;
78732;SDS011;68056;52.530;5.454;2023-03-08T15:15:43;7.22;;;2.65;;
78732;SDS011;68056;52.530;5.454;2023-03-08T15:18:09;3.55;;;1.92;;
78732;SDS011;68056;52.530;5.454;2023-03-08T15:20:38;5.35;;;2.22;;
78732;SDS011;68056;52.530;5.454;2023-03-08T15:23:10;4.78;;;2.20;;
78732;SDS011;68056;52.530;5.454;2023-03-08T15:25:42;6.10;;;2.33;;
78732;SDS011;68056;52.530;5.454;2023-03-08T15:28:09;5.70;;;1.90;;
78732;SDS011;68056;52.530;5.454;2023-03-08T15:30:38;3.40;;;2.03;;
78732;SDS011;68056;52.530;5.454;2023-03-08T15:33:03;4.07;;;2.20;;
78732;SDS011;68056;52.530;5.454;2023-03-08T15:35:29;5.68;;;2.67;;
78732;SDS011;68056;52.530;5.454;2023-03-08T15:37:55;5.50;;;2.33;;
78732;SDS011;68056;52.530;5.454;2023-03-08T15:40:21;5.95;;;2.30;;
78732;SDS011;68056;52.530;5.454;2023-03-08T15:42:49;4.03;;;2.13;;
78732;SDS011;68056;52.530;5.454;2023-03-08T15:45:15;5.30;;;1.92;;
78732;SDS011;68056;52.530;5.454;2023-03-08T15:47:41;3.75;;;1.67;;
78732;SDS011;68056;52.530;5.454;2023-03-08T15:50:14;5.05;;;2.47;;
78732;SDS011;68056;52.530;5.454;2023-03-08T15:52:41;6.15;;;2.55;;
78732;SDS011;68056;52.530;5.454;2023-03-08T15:55:06;4.35;;;2.20;;
78732;SDS011;68056;52.530;5.454;2023-03-08T15:57:33;4.35;;;2.13;;
78732;SDS011;68056;52.530;5.454;2023-03-08T16:00:01;4.03;;;1.88;;
78732;SDS011;68056;52.530;5.454;2023-03-08T16:02:30;5.28;;;2.20;;
78732;SDS011;68056;52.530;5.454;2023-03-08T16:04:55;6.25;;;2.35;;
78732;SDS011;68056;52.530;5.454;2023-03-08T16:07:21;4.72;;;2.38;;
78732;SDS011;68056;52.530;5.454;2023-03-08T16:09:47;3.55;;;2.20;;
78732;SDS011;68056;52.530;5.454;2023-03-08T16:12:13;5.50;;;2.95;;
78732;SDS011;68056;52.530;5.454;2023-03-08T16:14:39;3.97;;;2.20;;
78732;SDS011;68056;52.530;5.454;2023-03-08T16:17:09;5.60;;;2.90;;
78732;SDS011;68056;52.530;5.454;2023-03-08T16:19:34;7.25;;;3.15;;
78732;SDS011;68056;52.530;5.454;2023-03-08T16:22:00;7.68;;;2.97;;
78732;SDS011;68056;52.530;5.454;2023-03-08T16:24:27;4.97;;;2.55;;
78732;SDS011;68056;52.530;5.454;2023-03-08T16:26:53;4.95;;;2.78;;
78732;SDS011;68056;52.530;5.454;2023-03-08T16:29:19;3.58;;;2.20;;
78732;SDS011;68056;52.530;5.454;2023-03-08T16:31:46;5.80;;;2.78;;